Time;durP1;ratioP1;P1;durP2;ratioP2;P2;SDS_P1;SDS_P2;PMS_P1;PMS_P2;Temp;Humidity;BMP_temperature;BMP_pressure;BME280_temperature;BME280_humidity;BME280_pressure;Samples;Min_cycle;Max_cycle;Signal;HPM_P1;HPM_P2
2024/04/02 00:03:31;;;;;;;10.40;2.70;;;;;;;13.26;73.42;98011.98;216848;1257;152160;-71
2024/04/02 00:08:35;;;;;;;3.50;2.10;;;;;;;13.19;73.34;98008.20;216992;1257;139777;-71
2024/04/02 00:13:38;;;;;;;5.30;2.50;;;;;;;13.11;73.49;98010.30;217106;1257;139621;-71
2024/04/02 00:18:40;;;;;;;9.50;3.20;;;;;;;13.06;73.57;98006.19;218135;1258;140858;-71
2024/04/02 00:23:45;;;;;;;8.50;3.20;;;;;;;13.03;73.79;98008.17;217157;1257;140156;-71
2024/04/02 00:28:49;;;;;;;4.30;1.70;;;;;;;12.95;73.75;97994.42;217030;1259;139444;-71
2024/04/02 00:33:52;;;;;;;5.50;1.80;;;;;;;12.92;73.65;98000.48;217468;1259;139930;-72
2024/04/02 00:38:54;;;;;;;5.50;3.70;;;;;;;12.90;73.77;98022.60;216943;1258;139624;-72
2024/04/02 00:43:57;;;;;;;2.10;1.90;;;;;;;12.86;73.81;98026.34;218037;1257;141447;-71
2024/04/02 00:49:00;;;;;;;4.60;2.30;;;;;;;12.81;74.02;98027.14;217121;1259;140306;-71
2024/04/02 00:54:03;;;;;;;3.70;2.20;;;;;;;12.78;74.45;98024.08;216896;1258;141743;-73
2024/04/02 00:59:05;;;;;;;8.80;2.50;;;;;;;12.72;74.31;97996.73;217163;1257;140623;-71
2024/04/02 01:04:08;;;;;;;8.50;2.20;;;;;;;12.59;74.61;98012.32;216916;1257;139483;-71
2024/04/02 01:09:10;;;;;;;3.30;3.00;;;;;;;12.45;75.13;98020.81;217435;1257;139645;-71
2024/04/02 01:14:13;;;;;;;3.10;2.60;;;;;;;12.34;75.42;98022.12;217287;1257;141019;-73
2024/04/02 01:19:16;;;;;;;7.90;1.90;;;;;;;12.25;75.88;98026.66;218346;1259;141185;-72
2024/04/02 01:24:20;;;;;;;7.90;3.10;;;;;;;12.22;76.28;98039.70;217079;1257;140446;-72
2024/04/02 01:29:23;;;;;;;4.10;2.80;;;;;;;12.19;76.58;98060.52;217200;1260;140328;-72
2024/04/02 01:34:26;;;;;;;4.90;2.60;;;;;;;12.16;76.81;98065.95;217039;1262;139996;-72
2024/04/02 01:39:29;;;;;;;3.00;2.60;;;;;;;12.13;77.13;98064.06;218682;1257;139598;-73
2024/04/02 01:44:32;;;;;;;3.80;2.10;;;;;;;12.02;77.28;98063.44;218642;1257;140112;-73
2024/04/02 01:49:35;;;;;;;2.80;2.40;;;;;;;11.91;77.62;98068.81;217259;1258;140699;-72
2024/04/02 01:54:38;;;;;;;2.30;2.10;;;;;;;11.79;77.76;98057.98;217820;1258;140536;-73
2024/04/02 01:59:40;;;;;;;5.00;3.30;;;;;;;11.71;78.23;98051.04;217495;1257;140837;-72
2024/04/02 02:04:46;;;;;;;4.90;2.30;;;;;;;11.66;78.35;98059.19;217184;1259;140478;-72
2024/04/02 02:09:48;;;;;;;4.20;3.00;;;;;;;11.59;78.82;98072.14;217130;1262;140580;-73
2024/04/02 02:14:51;;;;;;;3.20;2.90;;;;;;;11.52;79.01;98062.55;217085;1257;140480;-72
2024/04/02 02:26:18;;;;;;;3.00;2.50;;;;;;;11.39;79.74;98039.28;217337;1257;139782;-70
2024/04/02 02:31:21;;;;;;;2.00;1.90;;;;;;;11.34;79.78;98038.42;217089;1262;141913;-71
2024/04/02 02:36:24;;;;;;;3.30;2.40;;;;;;;11.26;80.01;98031.85;218382;1262;140351;-72
2024/04/02 02:41:26;;;;;;;2.30;2.20;;;;;;;11.21;80.24;98027.84;217734;1259;139900;-72
2024/04/02 02:46:29;;;;;;;2.90;2.60;;;;;;;11.18;80.61;98040.17;217602;1258;140927;-70
2024/04/02 02:51:33;;;;;;;5.20;3.40;;;;;;;11.10;80.60;98048.07;217325;1257;139885;-71
2024/04/02 02:56:36;;;;;;;2.30;2.10;;;;;;;11.03;80.76;98063.48;217414;1257;140058;-71
2024/04/02 03:01:39;;;;;;;1.70;1.60;;;;;;;10.98;81.28;98060.45;218890;1257;140178;-75
2024/04/02 03:06:41;;;;;;;3.00;1.90;;;;;;;10.91;81.32;98058.95;219715;1262;140809;-71
2024/04/02 03:11:44;;;;;;;3.10;2.20;;;;;;;10.83;81.49;98051.15;218382;1257;140146;-72
2024/04/02 03:16:48;;;;;;;1.90;1.70;;;;;;;10.81;81.87;98050.64;219990;1257;140728;-73
2024/04/02 03:21:50;;;;;;;1.90;1.80;;;;;;;10.77;82.01;98050.02;220066;1257;141441;-73
2024/04/02 03:26:53;;;;;;;2.50;2.30;;;;;;;10.79;82.25;98050.59;220120;1257;141283;-72
2024/04/02 03:31:56;;;;;;;2.00;1.80;;;;;;;10.81;82.16;98051.98;217971;1257;139731;-72
2024/04/02 03:36:58;;;;;;;2.70;2.30;;;;;;;10.80;82.40;98051.34;217515;1256;140075;-73
2024/04/02 03:42:01;;;;;;;1.80;1.60;;;;;;;10.78;82.49;98044.88;217553;1257;140531;-70
2024/04/02 03:47:06;;;;;;;2.50;2.30;;;;;;;10.74;82.43;98043.27;217585;1257;140366;-71
2024/04/02 03:52:09;;;;;;;2.50;2.30;;;;;;;10.69;82.76;98047.03;218114;1256;141676;-70
2024/04/02 03:57:12;;;;;;;5.40;1.90;;;;;;;10.66;82.67;98045.27;217038;1260;139847;-70
2024/04/02 04:02:15;;;;;;;3.60;3.30;;;;;;;10.61;82.83;98049.87;217564;1257;140509;-70
2024/04/02 04:07:18;;;;;;;2.30;2.10;;;;;;;10.53;83.04;98051.13;217256;1260;140973;-72
2024/04/02 04:12:22;;;;;;;11.20;3.20;;;;;;;10.47;82.95;98056.96;217168;1256;140371;-71
2024/04/02 04:17:25;;;;;;;2.10;2.00;;;;;;;10.43;83.09;98055.55;217453;1260;140696;-71
2024/04/02 04:22:28;;;;;;;2.40;2.00;;;;;;;10.39;83.25;98053.33;217259;1256;139604;-74
2024/04/02 04:27:37;;;;;;;3.80;3.00;;;;;;;10.36;83.27;98053.67;218314;1256;141496;-72
2024/04/02 04:32:40;;;;;;;2.80;2.50;;;;;;;10.35;83.48;98055.08;218081;1258;139935;-72
2024/04/02 04:37:42;;;;;;;4.70;3.20;;;;;;;10.30;83.31;98053.60;217140;1257;140454;-72
2024/04/02 04:42:45;;;;;;;2.10;2.00;;;;;;;10.22;83.42;98056.87;218072;1259;139932;-71
2024/04/02 04:47:49;;;;;;;3.20;2.90;;;;;;;10.15;83.62;98057.83;217493;1256;141896;-71
2024/04/02 04:52:53;;;;;;;4.00;3.50;;;;;;;10.12;83.89;98060.02;217401;1258;141885;-73
2024/04/02 04:57:56;;;;;;;3.40;3.10;;;;;;;10.09;83.92;98063.17;218266;1256;393177;-72
2024/04/02 05:02:58;;;;;;;3.20;2.90;;;;;;;10.02;83.89;98072.53;220145;1257;140352;-72
2024/04/02 05:08:31;;;;;;;3.30;3.00;;;;;;;9.98;83.98;98073.30;220365;1256;140030;-73
2024/04/02 05:13:34;;;;;;;6.50;5.00;;;;;;;9.97;84.08;98073.08;217167;1257;139884;-72
2024/04/02 05:18:37;;;;;;;6.80;6.20;;;;;;;9.97;84.35;98077.23;217666;1257;140548;-72
2024/04/02 05:23:40;;;;;;;8.30;6.20;;;;;;;9.98;84.46;98082.77;217484;1256;139576;-72
2024/04/02 05:28:43;;;;;;;5.80;3.80;;;;;;;9.99;84.47;98086.17;217210;1257;139458;-70
2024/04/02 05:33:46;;;;;;;4.70;3.40;;;;;;;9.98;84.67;98089.74;217114;1257;139800;-71
2024/04/02 05:38:49;;;;;;;6.00;3.40;;;;;;;9.98;84.66;98091.34;217150;1257;139990;-71
2024/04/02 05:43:53;;;;;;;3.30;3.00;;;;;;;9.96;84.67;98087.45;218133;1256;140401;-71
2024/04/02 05:48:56;;;;;;;6.00;3.60;;;;;;;9.93;84.64;98092.04;217301;1256;140696;-71
2024/04/02 05:53:59;;;;;;;3.60;3.30;;;;;;;9.92;84.81;98092.14;218292;1256;141391;-71
2024/04/02 05:59:02;;;;;;;2.10;2.00;;;;;;;9.91;84.75;98094.33;217481;1257;140880;-71
2024/04/02 06:04:05;;;;;;;4.70;2.20;;;;;;;9.85;84.84;98092.69;217328;1257;139893;-73
2024/04/02 06:09:09;;;;;;;2.70;2.50;;;;;;;9.82;85.01;98101.10;217856;1258;139940;-73
2024/04/02 06:14:13;;;;;;;2.50;2.30;;;;;;;9.83;84.97;98106.52;217538;1257;140212;-71
2024/04/02 06:19:17;;;;;;;3.60;3.30;;;;;;;9.85;84.88;98111.69;217256;1259;141839;-68
2024/04/02 06:24:20;;;;;;;3.20;3.00;;;;;;;9.82;84.79;98104.77;217391;1258;140414;-71
2024/04/02 06:29:22;;;;;;;2.90;2.50;;;;;;;9.79;84.71;98101.80;217331;1260;140211;-72
2024/04/02 06:34:24;;;;;;;5.40;3.50;;;;;;;9.71;84.34;98112.84;217160;1261;140202;-73
2024/04/02 06:39:27;;;;;;;3.90;2.70;;;;;;;9.63;84.41;98130.83;217224;1259;140478;-74
2024/04/02 06:44:29;;;;;;;4.00;2.70;;;;;;;9.61;84.62;98140.30;217447;1258;140003;-70
2024/04/02 06:49:32;;;;;;;4.20;3.20;;;;;;;9.62;84.54;98155.46;217394;1256;140537;-72
2024/04/02 06:54:35;;;;;;;2.80;2.60;;;;;;;9.63;84.53;98163.13;217270;1259;140142;-72
2024/04/02 06:59:38;;;;;;;3.30;3.00;;;;;;;9.67;84.40;98163.83;216992;1256;140800;-74
2024/04/02 07:04:42;;;;;;;4.10;2.90;;;;;;;9.67;84.34;98162.02;220182;1256;141005;-71
2024/04/02 07:09:45;;;;;;;5.90;3.00;;;;;;;9.70;84.36;98165.58;219732;1256;140962;-71
2024/04/02 07:14:50;;;;;;;7.50;5.30;;;;;;;9.70;84.00;98164.89;217705;1256;141040;-69
2024/04/02 07:19:53;;;;;;;4.30;4.00;;;;;;;9.65;83.98;98166.80;217052;1256;140183;-75
2024/04/02 07:24:56;;;;;;;4.10;3.10;;;;;;;9.61;84.05;98170.20;217396;1257;139407;-72
2024/04/02 07:29:59;;;;;;;5.70;4.30;;;;;;;9.61;84.27;98164.62;217461;1260;139349;-72
2024/04/02 07:35:01;;;;;;;3.70;3.40;;;;;;;9.64;84.53;98170.37;217492;1257;140822;-72
2024/04/02 07:40:05;;;;;;;3.50;2.90;;;;;;;9.61;84.23;98167.39;217226;1257;139792;-72
2024/04/02 07:45:08;;;;;;;5.30;3.20;;;;;;;9.57;84.18;98180.15;218456;1256;140979;-72
2024/04/02 07:50:11;;;;;;;4.00;3.60;;;;;;;9.57;83.93;98198.40;217465;1261;139673;-70
2024/04/02 07:55:14;;;;;;;3.50;3.20;;;;;;;9.63;83.85;98201.81;217312;1259;139834;-70
2024/04/02 08:00:17;;;;;;;3.30;3.10;;;;;;;9.69;83.97;98205.08;217906;1256;140143;-72
2024/04/02 08:05:20;;;;;;;10.80;3.20;;;;;;;9.80;83.98;98200.00;217659;1261;139783;-71
2024/04/02 08:10:22;;;;;;;3.20;2.90;;;;;;;9.93;83.65;98184.45;217167;1257;141618;-71
2024/04/02 08:15:24;;;;;;;3.50;3.20;;;;;;;9.93;83.07;98189.13;217348;1259;140429;-71
2024/04/02 08:20:28;;;;;;;7.90;3.60;;;;;;;9.93;82.94;98193.98;217605;1257;140305;-71
2024/04/02 08:25:31;;;;;;;3.20;2.40;;;;;;;9.95;82.62;98188.60;217665;1261;140312;-71
2024/04/02 08:30:33;;;;;;;10.40;3.90;;;;;;;9.97;82.40;98203.08;217191;1257;140321;-73
2024/04/02 08:35:36;;;;;;;5.30;2.90;;;;;;;10.01;82.16;98218.26;217268;1262;141797;-71
2024/04/02 08:40:38;;;;;;;5.70;3.20;;;;;;;10.06;82.30;98230.81;217174;1257;140250;-71
2024/04/02 08:45:41;;;;;;;3.00;2.70;;;;;;;10.19;82.24;98248.27;217045;1262;141476;-71
2024/04/02 08:50:44;;;;;;;5.40;4.40;;;;;;;10.22;81.72;98264.11;217205;1259;140121;-70
2024/04/02 08:55:46;;;;;;;4.40;3.10;;;;;;;10.22;81.65;98264.91;217130;1262;141680;-71
2024/04/02 09:00:49;;;;;;;3.40;3.00;;;;;;;10.24;81.32;98271.98;217306;1262;140486;-73
2024/04/02 09:05:51;;;;;;;3.40;2.40;;;;;;;10.30;81.47;98276.30;217819;1257;141193;-72
2024/04/02 09:10:54;;;;;;;3.20;2.70;;;;;;;10.29;81.04;98277.00;217154;1261;139807;-72
2024/04/02 09:15:56;;;;;;;4.90;2.90;;;;;;;10.28;80.75;98278.22;217013;1257;140151;-71
2024/04/02 09:21:00;;;;;;;4.30;3.90;;;;;;;10.29;80.80;98287.11;217184;1262;140343;-71
2024/04/02 09:26:02;;;;;;;4.40;3.80;;;;;;;10.40;80.75;98292.59;218178;1260;140571;-72
2024/04/02 09:31:05;;;;;;;6.30;3.60;;;;;;;10.54;80.63;98292.36;216975;1262;139993;-73
2024/04/02 09:36:13;;;;;;;8.90;4.30;;;;;;;10.71;80.32;98298.39;217463;1262;139376;-73
2024/04/02 09:41:17;;;;;;;3.70;3.40;;;;;;;10.87;79.83;98301.17;216670;1259;140442;-72
2024/04/02 09:46:21;;;;;;;3.60;3.20;;;;;;;10.97;79.57;98304.52;217062;1261;141330;-70
2024/04/02 09:51:26;;;;;;;5.00;4.60;;;;;;;11.03;78.81;98309.59;216805;1262;139923;-71
2024/04/02 09:56:31;;;;;;;3.20;2.90;;;;;;;11.05;78.60;98303.83;216972;1259;141050;-72
2024/04/02 10:01:39;;;;;;;5.20;4.10;;;;;;;11.18;78.33;98302.77;216715;1260;140043;-71
2024/04/02 10:06:42;;;;;;;6.20;5.20;;;;;;;11.33;78.09;98314.86;217762;1259;140173;-70
2024/04/02 10:12:05;;;;;;;3.70;3.10;;;;;;;11.47;77.68;98316.83;217195;1257;140635;-72
2024/04/02 10:17:15;;;;;;;3.70;3.40;;;;;;;11.59;77.36;98316.29;218174;1262;139920;-70
2024/04/02 10:22:36;;;;;;;2.80;2.40;;;;;;;11.71;77.32;98318.45;217815;1259;139962;-72
2024/04/02 10:27:47;;;;;;;3.50;2.20;;;;;;;11.83;76.53;98320.13;217069;1262;140646;-71
2024/04/02 10:32:49;;;;;;;3.60;2.90;;;;;;;12.02;76.70;98322.23;217394;1262;140263;-71
2024/04/02 10:37:55;;;;;;;2.40;2.20;;;;;;;12.15;76.37;98336.56;219846;1257;140720;-71
2024/04/02 10:42:58;;;;;;;2.90;2.60;;;;;;;12.23;75.95;98333.82;217650;1259;140536;-72
2024/04/02 10:48:01;;;;;;;2.70;2.50;;;;;;;12.29;75.22;98342.16;218220;1261;140910;-72
2024/04/02 10:53:07;;;;;;;2.90;2.30;;;;;;;12.30;74.76;98350.38;217288;1261;140197;-73
2024/04/02 10:58:10;;;;;;;2.90;2.70;;;;;;;12.14;74.23;98356.87;217205;1258;139721;-72
2024/04/02 11:03:13;;;;;;;5.80;3.80;;;;;;;12.00;74.01;98361.81;218475;1261;142912;-72
2024/04/02 11:08:17;;;;;;;4.60;3.60;;;;;;;11.90;73.79;98356.93;217956;1262;140206;-73
2024/04/02 11:13:29;;;;;;;4.80;3.60;;;;;;;11.94;73.86;98348.98;217737;1262;140263;-72
2024/04/02 11:18:31;;;;;;;2.80;2.60;;;;;;;12.20;73.40;98353.46;217320;1259;139661;-72
2024/04/02 11:29:08;;;;;;;6.70;3.20;;;;;;;12.36;72.86;98359.95;217285;1260;140603;-71
2024/04/02 11:34:11;;;;;;;3.30;3.00;;;;;;;12.42;72.58;98363.60;217348;1257;141717;-73
2024/04/02 11:39:14;;;;;;;4.90;3.50;;;;;;;12.46;72.84;98362.08;217440;1258;140282;-73
2024/04/02 11:44:16;;;;;;;4.20;3.90;;;;;;;12.38;72.08;98363.63;217603;1263;140078;-72
2024/04/02 11:49:19;;;;;;;3.30;3.00;;;;;;;12.31;72.15;98354.75;217302;1257;141621;-72
2024/04/02 11:54:21;;;;;;;4.30;3.40;;;;;;;12.29;72.01;98350.44;217862;1260;139643;-71
2024/04/02 12:04:44;;;;;;;3.50;3.00;;;;;;;12.13;71.45;98375.85;217348;1260;140827;-71
2024/04/02 12:09:54;;;;;;;3.10;2.80;;;;;;;12.14;71.35;98389.46;217344;1262;139978;-70
2024/04/02 12:14:57;;;;;;;3.70;2.70;;;;;;;12.28;71.41;98396.45;217393;1262;140663;-72
2024/04/02 12:20:00;;;;;;;2.90;2.70;;;;;;;12.47;71.13;98392.96;217294;1262;140095;-72
2024/04/02 12:25:03;;;;;;;2.20;2.10;;;;;;;12.60;70.86;98391.13;217709;1259;140685;-73
2024/04/02 12:30:07;;;;;;;3.30;2.90;;;;;;;12.64;70.36;98401.48;217386;1263;140158;-71
2024/04/02 12:35:09;;;;;;;9.40;3.80;;;;;;;12.72;70.22;98408.04;218119;1263;140185;-73
2024/04/02 12:40:13;;;;;;;3.30;2.80;;;;;;;12.86;70.21;98411.38;217691;1262;140234;-74
2024/04/02 12:45:15;;;;;;;4.20;2.40;;;;;;;12.96;69.64;98412.95;217887;1262;140096;-71
2024/04/02 12:50:18;;;;;;;3.20;2.60;;;;;;;12.96;69.55;98410.81;218213;1262;140705;-71
2024/04/02 12:55:20;;;;;;;3.40;2.00;;;;;;;12.90;69.29;98416.27;217484;1261;140953;-70
2024/04/02 13:00:22;;;;;;;2.20;2.00;;;;;;;12.87;69.08;98421.20;217431;1263;140759;-73
2024/04/02 13:05:34;;;;;;;2.00;1.90;;;;;;;12.90;68.75;98429.15;217381;1263;140701;-76
2024/04/02 13:10:49;;;;;;;7.00;6.20;;;;;;;13.03;68.82;98426.27;217002;1260;142897;-75
2024/04/02 13:15:52;;;;;;;5.50;4.40;;;;;;;13.17;68.61;98429.99;217780;1263;140059;-76
2024/04/02 13:20:58;;;;;;;6.20;2.60;;;;;;;13.13;68.08;98423.34;217154;1265;142327;-75
2024/04/02 13:26:13;;;;;;;4.80;3.60;;;;;;;13.01;68.02;98422.27;217460;1261;139392;-77
2024/04/02 13:31:20;;;;;;;2.60;1.80;;;;;;;12.95;68.43;98428.10;217327;1263;140590;-74
2024/04/02 13:36:24;;;;;;;;;;;;;;;13.05;68.45;98425.87;217678;1262;139886;-75
2024/04/02 13:41:28;;;;;;;5.10;3.70;;;;;;;13.18;68.15;98418.53;217977;1261;129149;-75
2024/04/02 13:46:30;;;;;;;5.20;3.70;;;;;;;13.28;68.17;98411.54;217661;1261;140436;-76
2024/04/02 13:51:36;;;;;;;5.00;2.30;;;;;;;13.36;68.01;98407.23;217640;1263;142421;-74
2024/04/02 13:56:38;;;;;;;6.60;5.10;;;;;;;13.49;67.83;98403.36;217690;1263;140222;-73
2024/04/02 14:01:41;;;;;;;3.50;2.70;;;;;;;13.52;67.23;98405.52;217382;1263;140309;-76
2024/04/02 14:06:44;;;;;;;6.40;5.70;;;;;;;13.51;66.89;98406.50;217648;1262;140135;-72
2024/04/02 14:11:50;;;;;;;16.60;3.40;;;;;;;13.61;66.79;98414.20;218074;1257;140181;-71
2024/04/02 14:16:53;;;;;;;3.50;1.80;;;;;;;13.63;66.03;98410.70;218769;1260;140256;-73
2024/04/02 14:22:02;;;;;;;7.20;4.30;;;;;;;13.66;65.49;98408.91;217597;1260;140737;-72
2024/04/02 14:27:25;;;;;;;4.30;2.90;;;;;;;13.78;65.36;98403.48;218828;1258;140659;-75
2024/04/02 14:32:28;;;;;;;6.30;1.60;;;;;;;13.86;64.81;98407.45;217818;1262;141155;-72
2024/04/02 14:37:34;;;;;;;1.30;1.30;;;;;;;13.85;64.66;98410.20;217505;1260;140889;-73
2024/04/02 14:42:39;;;;;;;1.70;1.40;;;;;;;13.87;64.49;98410.19;217370;1262;140675;-71
2024/04/02 14:47:44;;;;;;;3.30;1.60;;;;;;;13.83;64.13;98408.36;217807;1257;140142;-75
2024/04/02 14:52:59;;;;;;;2.80;1.30;;;;;;;13.79;63.74;98419.38;217465;1262;140947;-73
2024/04/02 14:58:06;;;;;;;2.40;1.50;;;;;;;13.67;63.22;98416.23;218329;1261;139835;-74
2024/04/02 15:03:13;;;;;;;3.60;1.10;;;;;;;13.54;62.98;98415.95;217518;1261;139796;-73
2024/04/02 15:08:18;;;;;;;1.80;1.40;;;;;;;13.47;63.36;98413.89;217746;1257;139306;-75
2024/04/02 15:13:23;;;;;;;1.60;1.50;;;;;;;13.42;63.44;98416.15;217460;1262;140417;-73
2024/04/02 15:18:31;;;;;;;2.90;1.10;;;;;;;13.39;63.39;98416.39;217587;1260;139805;-75
2024/04/02 15:23:37;;;;;;;1.30;1.20;;;;;;;13.33;63.16;98420.74;217208;1260;139904;-73
2024/04/02 15:28:39;;;;;;;1.50;1.40;;;;;;;13.23;63.15;98419.92;217595;1259;138709;-73
2024/04/02 15:33:43;;;;;;;0.80;0.80;;;;;;;13.11;63.04;98423.09;217690;1260;139595;-72
2024/04/02 15:38:46;;;;;;;4.10;1.50;;;;;;;12.96;62.81;98422.63;217546;1262;141134;-75
2024/04/02 15:43:57;;;;;;;2.00;1.70;;;;;;;12.88;63.11;98425.86;218536;1258;139989;-72
2024/04/02 15:49:01;;;;;;;1.50;1.40;;;;;;;12.85;63.12;98439.74;217714;1260;219496;-74
2024/04/02 15:54:03;;;;;;;2.00;1.90;;;;;;;12.75;63.30;98442.45;217813;1262;141963;-70
2024/04/02 15:59:10;;;;;;;1.70;1.30;;;;;;;12.59;63.62;98445.67;218478;1261;140017;-74
2024/04/02 16:04:15;;;;;;;2.30;1.60;;;;;;;12.51;63.82;98447.88;218441;1262;141387;-73
2024/04/02 16:09:22;;;;;;;1.20;1.10;;;;;;;12.36;63.89;98455.30;217485;1264;142818;-72
2024/04/02 16:14:32;;;;;;;0.90;0.70;;;;;;;12.21;64.17;98464.33;217455;1260;139830;-75
2024/04/02 16:19:39;;;;;;;2.90;1.30;;;;;;;12.09;64.37;98465.24;217866;1257;140389;-75
2024/04/02 16:24:59;;;;;;;2.10;1.40;;;;;;;11.94;64.24;98469.31;217384;1262;140122;-75
2024/04/02 16:30:06;;;;;;;1.20;1.10;;;;;;;11.81;64.67;98465.31;217317;1259;140256;-74
2024/04/02 16:35:12;;;;;;;1.80;0.90;;;;;;;11.71;64.83;98467.51;217416;1257;141487;-74
2024/04/02 16:40:18;;;;;;;2.00;1.30;;;;;;;11.63;65.12;98467.65;217838;1262;140821;-76
2024/04/02 16:45:22;;;;;;;2.10;1.70;;;;;;;11.53;65.28;98463.84;217600;1257;141119;-72
2024/04/02 16:50:26;;;;;;;2.00;1.00;;;;;;;11.43;65.42;98470.80;217523;1257;140014;-76
2024/04/02 16:55:28;;;;;;;1.70;1.10;;;;;;;11.34;65.55;98470.81;217521;1258;140318;-74
2024/04/02 17:00:30;;;;;;;2.00;1.70;;;;;;;11.25;65.80;98479.65;216892;1257;519783;-73
2024/04/02 17:05:33;;;;;;;1.80;1.70;;;;;;;11.15;65.91;98478.80;217469;1257;142433;-69
2024/04/02 17:10:37;;;;;;;1.40;1.20;;;;;;;11.03;66.02;98487.02;218513;1257;140122;-70
2024/04/02 17:15:39;;;;;;;3.80;1.60;;;;;;;10.97;66.10;98492.11;217407;1257;139775;-69
2024/04/02 17:20:42;;;;;;;1.60;1.30;;;;;;;10.89;66.30;98487.73;217712;1257;139748;-70
2024/04/02 17:25:52;;;;;;;2.30;1.80;;;;;;;10.81;66.50;98494.98;217303;1257;139933;-69
2024/04/02 17:30:59;;;;;;;2.70;1.40;;;;;;;10.73;66.88;98500.61;217420;1262;140607;-68
2024/04/02 17:36:06;;;;;;;3.70;1.60;;;;;;;10.62;67.16;98506.06;217519;1257;140867;-70
2024/04/02 17:41:09;;;;;;;3.10;2.10;;;;;;;10.54;67.37;98506.78;217769;1257;143211;-69
2024/04/02 17:46:12;;;;;;;3.60;1.70;;;;;;;10.50;67.83;98508.27;218222;1257;140035;-70
2024/04/02 17:51:16;;;;;;;5.40;2.40;;;;;;;10.46;67.98;98513.95;217124;1257;140877;-69
2024/04/02 17:56:19;;;;;;;2.50;1.60;;;;;;;10.42;68.09;98520.87;218724;1257;140635;-69
2024/04/02 18:01:21;;;;;;;5.00;2.60;;;;;;;10.39;68.15;98522.96;217441;1258;139972;-70
2024/04/02 18:06:33;;;;;;;3.10;1.90;;;;;;;10.38;68.31;98522.27;217671;1256;140367;-70
2024/04/02 18:11:36;;;;;;;2.60;2.30;;;;;;;10.35;68.34;98531.38;218577;1257;141151;-71
2024/04/02 18:16:39;;;;;;;1.60;1.50;;;;;;;10.34;68.50;98540.21;217758;1256;139928;-71
2024/04/02 18:21:42;;;;;;;3.40;2.10;;;;;;;10.32;68.75;98542.66;217733;1257;141057;-70
2024/04/02 18:26:44;;;;;;;4.20;2.60;;;;;;;10.30;68.94;98543.71;217502;1257;140411;-70
2024/04/02 18:31:51;;;;;;;2.90;2.30;;;;;;;10.24;69.27;98539.21;217248;1260;139762;-73
2024/04/02 18:36:55;;;;;;;3.50;2.60;;;;;;;10.18;69.56;98540.06;217511;1260;141427;-70
2024/04/02 18:41:59;;;;;;;5.40;3.10;;;;;;;10.12;69.90;98543.23;217451;1256;154138;-71
2024/04/02 18:47:02;;;;;;;4.90;2.20;;;;;;;10.06;70.25;98540.66;217638;1257;140815;-71
2024/04/02 18:52:06;;;;;;;3.40;2.70;;;;;;;10.04;70.40;98535.23;217728;1259;140872;-71
2024/04/02 18:57:10;;;;;;;3.50;2.20;;;;;;;10.04;70.56;98535.60;217490;1260;142194;-70
2024/04/02 19:02:16;;;;;;;3.30;2.40;;;;;;;10.01;70.71;98538.46;217865;1257;140189;-73
2024/04/02 19:07:19;;;;;;;3.60;2.10;;;;;;;9.96;70.64;98535.83;217787;1260;141137;-70
2024/04/02 19:12:21;;;;;;;3.10;2.50;;;;;;;9.90;70.67;98537.12;218035;1257;141025;-70
2024/04/02 19:17:25;;;;;;;4.50;3.00;;;;;;;9.83;70.71;98535.48;217476;1257;140356;-72
2024/04/02 19:22:27;;;;;;;2.60;2.10;;;;;;;9.78;70.72;98534.36;218072;1262;139455;-70
2024/04/02 19:27:29;;;;;;;4.10;2.90;;;;;;;9.74;70.82;98536.85;217577;1257;140584;-71
2024/04/02 19:32:32;;;;;;;4.10;2.00;;;;;;;9.72;70.77;98542.36;217768;1257;139677;-70
2024/04/02 19:37:36;;;;;;;3.60;2.40;;;;;;;9.71;70.89;98547.48;217940;1260;139559;-71
2024/04/02 19:42:39;;;;;;;1.80;1.60;;;;;;;9.72;71.11;98549.70;217473;1257;139883;-69
2024/04/02 19:47:42;;;;;;;3.60;2.40;;;;;;;9.73;71.64;98558.13;217703;1258;140743;-72
2024/04/02 19:52:45;;;;;;;4.70;1.50;;;;;;;9.67;72.28;98539.73;218082;1259;140359;-71
2024/04/02 19:57:47;;;;;;;1.20;1.10;;;;;;;9.52;72.74;98528.98;217525;1259;140046;-70
2024/04/02 20:02:50;;;;;;;4.40;1.80;;;;;;;9.39;73.13;98534.45;217666;1259;140367;-70
2024/04/02 20:07:53;;;;;;;4.30;2.70;;;;;;;9.29;73.42;98533.42;217517;1258;140846;-71
2024/04/02 20:12:56;;;;;;;3.80;2.90;;;;;;;9.23;73.45;98533.22;218083;1257;140295;-70
2024/04/02 20:17:59;;;;;;;1.90;1.70;;;;;;;9.19;73.52;98531.21;217468;1257;140590;-72
2024/04/02 20:23:01;;;;;;;3.90;2.60;;;;;;;9.10;73.35;98535.58;217510;1261;140460;-68
2024/04/02 20:28:04;;;;;;;3.30;3.00;;;;;;;9.05;73.60;98535.59;217521;1257;141087;-70
2024/04/02 20:33:06;;;;;;;1.70;1.60;;;;;;;9.01;73.48;98533.95;217483;1261;140298;-70
2024/04/02 20:38:13;;;;;;;2.10;1.80;;;;;;;8.97;73.76;98526.20;217652;1257;140276;-72
2024/04/02 20:43:15;;;;;;;2.00;1.90;;;;;;;8.97;73.81;98535.72;217274;1259;139617;-70
2024/04/02 20:48:19;;;;;;;2.30;2.10;;;;;;;8.96;74.05;98546.83;217388;1262;139720;-71
2024/04/02 20:53:22;;;;;;;1.80;1.60;;;;;;;8.98;74.54;98540.84;217563;1258;140662;-70
2024/04/02 20:58:25;;;;;;;7.30;1.70;;;;;;;8.96;74.90;98539.91;217716;1258;208839;-70
2024/04/02 21:03:28;;;;;;;3.10;1.80;;;;;;;8.93;75.34;98537.71;217663;1257;140098;-70
2024/04/02 21:08:32;;;;;;;3.10;1.80;;;;;;;8.90;75.24;98542.62;217545;1259;140088;-70
2024/04/02 21:13:34;;;;;;;5.50;1.90;;;;;;;8.89;75.62;98543.89;217328;1259;140170;-71
2024/04/02 21:18:37;;;;;;;3.50;2.70;;;;;;;8.84;75.74;98545.56;218200;1257;141352;-70
2024/04/02 21:23:40;;;;;;;3.40;2.20;;;;;;;8.77;75.72;98547.52;217548;1258;140696;-69
2024/04/02 21:28:46;;;;;;;3.00;2.10;;;;;;;8.75;75.95;98547.23;217684;1259;140111;-70
2024/04/02 21:33:49;;;;;;;3.70;2.10;;;;;;;8.77;76.18;98552.56;217622;1260;235475;-69
2024/04/02 21:38:52;;;;;;;5.80;2.90;;;;;;;8.82;76.24;98548.27;217688;1257;139659;-75
2024/04/02 21:43:55;;;;;;;8.40;2.70;;;;;;;8.87;76.14;98548.34;217613;1259;139750;-71
2024/04/02 21:48:57;;;;;;;1.90;1.80;;;;;;;8.91;76.12;98553.48;217538;1258;139952;-70
2024/04/02 21:53:59;;;;;;;3.10;2.40;;;;;;;8.92;76.00;98553.43;217501;1257;139329;-70
2024/04/02 21:59:02;;;;;;;3.30;1.90;;;;;;;8.90;75.57;98549.58;217425;1257;139484;-70
2024/04/02 22:04:04;;;;;;;4.00;2.20;;;;;;;8.85;75.62;98549.18;217263;1258;139611;-70
2024/04/02 22:09:07;;;;;;;3.40;2.00;;;;;;;8.82;75.53;98557.18;217211;1259;152330;-70
2024/04/02 22:14:08;;;;;;;2.60;2.40;;;;;;;8.80;75.35;98560.52;217473;1257;140447;-69
2024/04/02 22:19:11;;;;;;;6.40;2.70;;;;;;;8.75;75.15;98559.25;217351;1260;139696;-70
2024/04/02 22:24:14;;;;;;;2.90;2.60;;;;;;;8.70;75.16;98558.34;217730;1260;140342;-69
2024/04/02 22:29:17;;;;;;;5.40;1.90;;;;;;;8.69;75.21;98559.55;217540;1259;140901;-70
2024/04/02 22:34:20;;;;;;;7.00;3.20;;;;;;;8.71;75.33;98555.33;217949;1256;139789;-70
2024/04/02 22:39:22;;;;;;;2.30;1.70;;;;;;;8.74;75.43;98559.08;217699;1257;139938;-69
2024/04/02 22:44:26;;;;;;;2.30;1.40;;;;;;;8.79;75.39;98561.63;218453;1259;140681;-71
2024/04/02 22:49:29;;;;;;;4.20;2.30;;;;;;;8.83;75.24;98563.63;217348;1257;140694;-71
2024/04/02 22:54:33;;;;;;;4.20;2.30;;;;;;;8.87;75.13;98567.64;217988;1256;139663;-70
2024/04/02 22:59:37;;;;;;;4.90;1.90;;;;;;;8.90;75.08;98566.64;217438;1259;139973;-72
2024/04/02 23:04:39;;;;;;;3.10;1.10;;;;;;;8.93;75.21;98561.95;217368;1259;140134;-71
2024/04/02 23:09:42;;;;;;;2.40;1.70;;;;;;;8.99;74.84;98562.00;217659;1260;139914;-70
2024/04/02 23:14:45;;;;;;;1.60;1.50;;;;;;;9.04;74.92;98563.21;217806;1261;140032;-73
2024/04/02 23:19:47;;;;;;;8.10;2.90;;;;;;;9.07;74.55;98563.89;218099;1259;140257;-69
2024/04/02 23:24:50;;;;;;;2.80;1.60;;;;;;;9.11;74.77;98572.80;217383;1262;139666;-71
2024/04/02 23:29:53;;;;;;;4.60;1.90;;;;;;;9.15;74.54;98568.31;217538;1261;141870;-73
2024/04/02 23:34:56;;;;;;;6.00;1.40;;;;;;;9.18;74.51;98560.14;218232;1259;140091;-73
2024/04/02 23:39:58;;;;;;;1.80;1.40;;;;;;;9.20;74.46;98557.80;217445;1260;140508;-71